Time;durP1;ratioP1;P1;durP2;ratioP2;P2;SDS_P1;SDS_P2;PMS_P1;PMS_P2;Temp;Humidity;BMP_temperature;BMP_pressure;BME280_temperature;BME280_humidity;BME280_pressure;Samples;Min_cycle;Max_cycle;Signal;HPM_P1;HPM_P2
2022/04/04 00:00:07;;;;;;;8.90;2.10;;;;;;;0.69;57.74;100290.82;106116;1270;22548;-53
2022/04/04 00:02:58;;;;;;;11.00;2.50;;;;;;;0.73;57.68;100288.66;106008;1271;22559;-56
2022/04/04 00:05:30;;;;;;;13.80;2.70;;;;;;;0.76;57.77;100289.80;106142;1270;24265;-50
2022/04/04 00:08:02;;;;;;;10.40;2.80;;;;;;;0.78;57.74;100287.34;106132;1271;22588;-52
2022/04/04 00:10:34;;;;;;;10.70;2.50;;;;;;;0.80;57.75;100289.03;106028;1270;22531;-50
2022/04/04 00:13:06;;;;;;;11.30;2.50;;;;;;;0.84;57.52;100284.52;106089;1268;23069;-50
2022/04/04 00:15:37;;;;;;;14.30;2.80;;;;;;;0.87;57.58;100283.92;106074;1270;24128;-54
2022/04/04 00:18:11;;;;;;;11.30;2.40;;;;;;;0.89;57.48;100279.27;105966;1270;22518;-52
2022/04/04 00:20:44;;;;;;;11.50;2.50;;;;;;;0.91;57.53;100279.86;106035;1270;22569;-54
2022/04/04 00:23:15;;;;;;;14.80;2.50;;;;;;;0.92;57.47;100276.23;106149;1270;22614;-51
2022/04/04 00:25:48;;;;;;;9.60;2.60;;;;;;;0.93;57.47;100276.46;106085;1271;22590;-49
2022/04/04 00:28:20;;;;;;;14.40;2.60;;;;;;;0.95;57.54;100269.38;106090;1270;22728;-50
2022/04/04 00:30:52;;;;;;;12.10;2.60;;;;;;;0.95;57.48;100266.23;106118;1270;25754;-58
2022/04/04 00:33:23;;;;;;;13.00;3.10;;;;;;;0.94;57.59;100270.64;109139;1270;22534;-54
2022/04/04 00:35:55;;;;;;;11.20;3.40;;;;;;;0.93;57.58;100271.05;108683;1270;25350;-54
2022/04/04 00:38:26;;;;;;;13.90;3.00;;;;;;;0.92;57.60;100273.19;106013;1270;22546;-51
2022/04/04 00:40:58;;;;;;;10.20;2.40;;;;;;;0.91;57.57;100273.20;106193;1270;24198;-55
2022/04/04 00:43:29;;;;;;;9.90;2.40;;;;;;;0.90;57.71;100270.38;106157;1269;22532;-54
2022/04/04 00:46:02;;;;;;;13.10;3.60;;;;;;;0.88;57.65;100264.28;106187;1270;22645;-54
2022/04/04 00:48:34;;;;;;;11.00;2.50;;;;;;;0.85;57.74;100264.55;106264;1270;24252;-52
2022/04/04 00:51:06;;;;;;;9.90;2.80;;;;;;;0.82;57.66;100264.82;106065;1270;22541;-56
2022/04/04 00:53:39;;;;;;;10.90;2.70;;;;;;;0.77;57.74;100260.27;106118;1270;25575;-58
2022/04/04 00:56:11;;;;;;;8.90;2.40;;;;;;;0.73;57.78;100255.76;106296;1270;22570;-56
2022/04/04 00:58:44;;;;;;;10.60;2.70;;;;;;;0.68;57.90;100255.27;106379;1270;23190;-54
2022/04/04 01:01:15;;;;;;;10.20;2.70;;;;;;;0.64;57.96;100257.77;105956;1270;22532;-56
2022/04/04 01:03:47;;;;;;;13.40;2.90;;;;;;;0.59;57.98;100250.61;105965;1270;22664;-52
2022/04/04 01:06:19;;;;;;;13.20;2.60;;;;;;;0.55;58.04;100245.39;105900;1270;24267;-52
2022/04/04 01:08:51;;;;;;;12.70;3.00;;;;;;;0.52;58.16;100242.45;106081;1270;22528;-54
2022/04/04 01:11:22;;;;;;;14.40;3.10;;;;;;;0.48;58.21;100243.83;105884;1270;24833;-50
2022/04/04 01:13:54;;;;;;;12.20;3.10;;;;;;;0.44;58.23;100246.70;106302;1270;22553;-55
2022/04/04 01:16:25;;;;;;;15.70;3.90;;;;;;;0.40;58.42;100243.85;106458;1270;25637;-54
2022/04/04 01:18:57;;;;;;;15.80;4.90;;;;;;;0.37;58.43;100238.23;106302;1270;25428;-51
2022/04/04 01:21:28;;;;;;;11.50;2.60;;;;;;;0.35;58.71;100237.08;106080;1271;24297;-51
2022/04/04 01:24:02;;;;;;;14.40;3.60;;;;;;;0.32;58.64;100234.61;106287;1270;23776;-56
2022/04/04 01:26:34;;;;;;;12.20;3.30;;;;;;;0.30;58.85;100233.45;106150;1270;24292;-56
2022/04/04 01:29:06;;;;;;;14.70;4.30;;;;;;;0.28;59.03;100232.61;106133;1270;24278;-51
2022/04/04 01:31:37;;;;;;;12.30;4.20;;;;;;;0.28;59.07;100229.55;105871;1270;25438;-54
2022/04/04 01:34:08;;;;;;;14.10;4.10;;;;;;;0.27;59.16;100222.59;106141;1270;22581;-51
2022/04/04 01:36:40;;;;;;;19.20;5.40;;;;;;;0.26;59.36;100223.31;106008;1270;22654;-53
2022/04/04 01:39:11;;;;;;;18.20;4.10;;;;;;;0.23;59.42;100220.11;106206;1270;25601;-54
2022/04/04 01:41:43;;;;;;;11.10;3.30;;;;;;;0.22;59.37;100222.88;106132;1270;23055;-51
2022/04/04 01:44:15;;;;;;;12.10;4.00;;;;;;;0.20;59.60;100214.51;106129;1270;22760;-55
2022/04/04 01:46:47;;;;;;;13.50;4.00;;;;;;;0.18;59.68;100217.42;106189;1270;22916;-52
2022/04/04 01:49:18;;;;;;;16.20;4.90;;;;;;;0.16;59.67;100213.53;106109;1270;25567;-53
2022/04/04 01:51:50;;;;;;;14.90;4.20;;;;;;;0.14;59.88;100214.10;106205;1270;23189;-51
2022/04/04 01:54:22;;;;;;;13.70;4.80;;;;;;;0.11;60.15;100210.61;106136;1270;22573;-54
2022/04/04 01:56:53;;;;;;;15.50;4.30;;;;;;;0.10;60.10;100211.48;106167;1270;24236;-51
2022/04/04 01:59:26;;;;;;;15.50;4.10;;;;;;;0.08;60.27;100210.96;106069;1270;25594;-52
2022/04/04 02:01:58;;;;;;;13.60;4.20;;;;;;;0.07;60.34;100211.42;106222;1270;22747;-53
2022/04/04 02:04:29;;;;;;;16.90;5.10;;;;;;;0.08;60.46;100206.73;106121;1270;22569;-51
2022/04/04 02:07:00;;;;;;;14.60;4.40;;;;;;;0.10;60.53;100205.68;106142;1270;22782;-53
2022/04/04 02:09:33;;;;;;;16.20;5.70;;;;;;;0.12;60.62;100209.27;105961;1270;25640;-56
2022/04/04 02:12:06;;;;;;;13.50;4.10;;;;;;;0.14;60.79;100204.38;106022;1270;22552;-55
2022/04/04 02:14:38;;;;;;;16.60;5.20;;;;;;;0.18;60.77;100209.12;106030;1270;22527;-54
2022/04/04 02:17:10;;;;;;;18.60;4.50;;;;;;;0.19;60.86;100206.20;106181;1270;25720;-52
2022/04/04 02:19:41;;;;;;;14.40;4.70;;;;;;;0.20;60.72;100204.86;105956;1270;22811;-52
2022/04/04 02:22:14;;;;;;;15.10;5.20;;;;;;;0.21;60.88;100202.65;105911;1270;25548;-54
2022/04/04 02:24:46;;;;;;;15.30;5.20;;;;;;;0.23;60.99;100203.09;105948;1270;23604;-54
2022/04/04 02:27:18;;;;;;;16.90;4.80;;;;;;;0.24;61.09;100196.11;108613;1270;24918;-55
2022/04/04 02:29:51;;;;;;;12.70;4.10;;;;;;;0.26;61.07;100194.59;106056;1270;23386;-50
2022/04/04 02:32:23;;;;;;;12.90;3.80;;;;;;;0.28;61.13;100190.71;106135;1270;22667;-53
2022/04/04 02:34:54;;;;;;;12.90;4.10;;;;;;;0.30;61.13;100191.79;106173;1270;22551;-52
2022/04/04 02:37:25;;;;;;;19.60;6.30;;;;;;;0.33;61.26;100188.15;108313;1270;22578;-53
2022/04/04 02:39:57;;;;;;;15.50;5.10;;;;;;;0.36;61.14;100190.54;106293;1270;24952;-54
2022/04/04 02:42:29;;;;;;;13.20;4.60;;;;;;;0.39;61.19;100187.85;106018;1271;24994;-50
2022/04/04 02:45:00;;;;;;;14.90;4.50;;;;;;;0.41;61.11;100183.73;105809;1271;22556;-50
2022/04/04 02:47:32;;;;;;;14.70;5.10;;;;;;;0.44;61.13;100184.88;106052;1271;25477;-52
2022/04/04 02:50:03;;;;;;;12.10;4.30;;;;;;;0.46;61.20;100186.09;106816;1271;22584;-51
2022/04/04 02:52:36;;;;;;;12.10;4.00;;;;;;;0.48;61.19;100183.40;106258;1271;22569;-51
2022/04/04 02:57:57;;;;;;;13.60;5.30;;;;;;;0.50;61.35;100180.00;105638;1271;24215;-53
2022/04/04 03:00:28;;;;;;;12.70;5.20;;;;;;;0.51;61.20;100180.14;105780;1271;24188;-51
2022/04/04 03:03:00;;;;;;;15.10;4.60;;;;;;;0.53;61.26;100180.04;107432;1271;22786;-54
2022/04/04 03:05:32;;;;;;;12.00;4.20;;;;;;;0.55;61.27;100181.90;106084;1271;25103;-55
2022/04/04 03:08:04;;;;;;;14.30;5.00;;;;;;;0.57;61.38;100181.02;106220;1271;22733;-56
2022/04/04 03:10:36;;;;;;;12.30;4.20;;;;;;;0.59;61.28;100180.05;106177;1271;22878;-53
2022/04/04 03:13:07;;;;;;;14.20;4.70;;;;;;;0.61;61.37;100180.41;106023;1271;25623;-53
2022/04/04 03:15:39;;;;;;;15.70;4.80;;;;;;;0.64;61.51;100182.24;106182;1271;22577;-52
2022/04/04 03:18:11;;;;;;;12.10;4.50;;;;;;;0.66;61.42;100178.38;106233;1271;22559;-52
2022/04/04 03:20:42;;;;;;;17.20;5.30;;;;;;;0.68;61.60;100176.86;106151;1271;24206;-55
2022/04/04 03:23:13;;;;;;;18.60;5.40;;;;;;;0.70;61.61;100175.47;107466;1271;22560;-54
2022/04/04 03:25:45;;;;;;;14.50;5.70;;;;;;;0.72;61.58;100171.77;106249;1271;25444;-53
2022/04/04 03:28:16;;;;;;;17.50;5.90;;;;;;;0.73;61.73;100165.16;106187;1271;22546;-52
2022/04/04 03:30:48;;;;;;;13.50;4.90;;;;;;;0.76;61.73;100164.34;106113;1271;22558;-53
2022/04/04 03:33:20;;;;;;;16.90;6.00;;;;;;;0.78;61.70;100161.56;105968;1271;23218;-53
2022/04/04 03:35:52;;;;;;;13.80;4.90;;;;;;;0.81;61.65;100165.21;105847;1273;23325;-55
2022/04/04 03:38:24;;;;;;;18.60;6.20;;;;;;;0.83;61.86;100162.27;106138;1271;25489;-54
2022/04/04 03:40:56;;;;;;;14.90;5.20;;;;;;;0.86;61.81;100165.77;106211;1270;24309;-50
2022/04/04 03:43:27;;;;;;;16.50;5.30;;;;;;;0.89;61.89;100166.20;107780;1260;22590;-55
2022/04/04 03:46:00;;;;;;;15.50;5.20;;;;;;;0.91;62.06;100165.77;105903;1269;22594;-57
2022/04/04 03:48:32;;;;;;;15.10;5.00;;;;;;;0.94;62.09;100170.84;105904;1270;23852;-56
2022/04/04 03:51:04;;;;;;;14.40;5.20;;;;;;;0.97;61.99;100170.70;105972;1270;24237;-54
2022/04/04 03:53:35;;;;;;;12.00;3.80;;;;;;;1.00;62.15;100166.02;106100;1271;23523;-57
2022/04/04 03:56:09;;;;;;;13.10;4.70;;;;;;;1.02;62.23;100167.73;106136;1271;22683;-57
2022/04/04 03:58:40;;;;;;;15.50;5.10;;;;;;;1.03;62.23;100166.68;106069;1270;25541;-57
2022/04/04 04:01:12;;;;;;;13.40;4.30;;;;;;;1.06;62.21;100161.05;105983;1268;24280;-54
2022/04/04 04:03:44;;;;;;;13.80;5.00;;;;;;;1.09;62.37;100159.52;105947;1270;22563;-58
2022/04/04 04:06:16;;;;;;;17.70;4.90;;;;;;;1.11;62.31;100160.12;108492;1270;25544;-56
2022/04/04 04:08:50;;;;;;;12.40;5.40;;;;;;;1.13;62.43;100160.40;105838;1270;22626;-54
2022/04/04 04:11:21;;;;;;;11.10;4.10;;;;;;;1.14;62.48;100161.88;106020;1270;26593;-56
2022/04/04 04:13:54;;;;;;;13.90;5.10;;;;;;;1.16;62.46;100159.50;106766;1270;24973;-54
2022/04/04 04:16:26;;;;;;;17.40;6.10;;;;;;;1.17;62.56;100159.31;105881;1270;22525;-56
2022/04/04 04:18:57;;;;;;;14.80;5.40;;;;;;;1.17;62.54;100157.04;105925;1270;24457;-54
2022/04/04 04:21:29;;;;;;;16.40;6.00;;;;;;;1.17;62.61;100154.35;105887;1270;22617;-55
2022/04/04 04:24:01;;;;;;;14.10;6.20;;;;;;;1.17;62.65;100159.54;106054;1270;22531;-59
2022/04/04 04:26:32;;;;;;;13.30;5.40;;;;;;;1.17;62.55;100157.89;109768;1270;22518;-56
2022/04/04 04:29:04;;;;;;;19.90;5.80;;;;;;;1.17;62.67;100155.46;107618;1270;24325;-56
2022/04/04 04:31:36;;;;;;;16.20;5.20;;;;;;;1.18;62.62;100156.48;107023;1270;22559;-56
2022/04/04 04:34:07;;;;;;;19.60;5.50;;;;;;;1.18;62.71;100153.71;109785;1270;23106;-55
2022/04/04 04:36:39;;;;;;;19.00;5.80;;;;;;;1.18;62.61;100155.30;109789;1270;23329;-58
2022/04/04 04:39:11;;;;;;;17.30;6.10;;;;;;;1.20;62.75;100152.52;107149;1270;22613;-58
2022/04/04 04:41:45;;;;;;;21.20;6.00;;;;;;;1.20;62.85;100152.83;105862;1270;22582;-56
2022/04/04 04:44:16;;;;;;;21.30;6.70;;;;;;;1.20;62.81;100150.55;106102;1270;22538;-56
2022/04/04 04:46:48;;;;;;;14.80;5.40;;;;;;;1.20;62.73;100150.23;105913;1270;24262;-57
2022/04/04 04:49:20;;;;;;;19.80;6.10;;;;;;;1.20;62.81;100154.40;105857;1270;22598;-58
2022/04/04 04:51:52;;;;;;;17.60;5.40;;;;;;;1.19;62.81;100155.90;106102;1270;22539;-57
2022/04/04 04:54:23;;;;;;;17.80;6.00;;;;;;;1.18;62.86;100156.09;106106;1270;25430;-57
2022/04/04 04:56:54;;;;;;;16.60;6.40;;;;;;;1.14;62.89;100155.91;106033;1271;24849;-55
2022/04/04 04:59:26;;;;;;;16.70;5.20;;;;;;;1.12;63.03;100153.90;105923;1270;22561;-57
2022/04/04 05:01:58;;;;;;;18.30;6.90;;;;;;;1.09;63.09;100154.48;106365;1270;25258;-57
2022/04/04 05:04:30;;;;;;;17.90;7.10;;;;;;;1.07;63.17;100153.03;106061;1270;25399;-54
2022/04/04 05:07:01;;;;;;;16.60;5.90;;;;;;;1.04;63.21;100148.92;105978;1270;25765;-55
2022/04/04 05:09:33;;;;;;;14.70;5.30;;;;;;;1.00;63.25;100151.88;107215;1270;22600;-53
2022/04/04 05:12:05;;;;;;;15.80;6.20;;;;;;;0.98;63.31;100148.23;106047;1270;24348;-57
2022/04/04 05:14:39;;;;;;;18.90;6.30;;;;;;;0.96;63.26;100147.39;106072;1270;23926;-56
2022/04/04 05:17:11;;;;;;;11.50;5.00;;;;;;;0.94;63.42;100148.44;106238;1270;23412;-56
2022/04/04 05:19:42;;;;;;;19.80;5.80;;;;;;;0.94;63.40;100148.20;107394;1270;22534;-56
2022/04/04 05:22:14;;;;;;;14.20;4.50;;;;;;;0.95;63.44;100151.52;106388;1270;25640;-58
2022/04/04 05:24:46;;;;;;;16.30;5.60;;;;;;;0.95;63.43;100151.10;106146;1270;22747;-56
2022/04/04 05:27:18;;;;;;;19.00;6.50;;;;;;;0.97;63.50;100152.40;106961;1270;22612;-54
2022/04/04 05:29:50;;;;;;;16.20;5.60;;;;;;;1.01;63.41;100154.64;105960;1270;22532;-59
2022/04/04 05:32:21;;;;;;;15.20;5.70;;;;;;;1.03;63.32;100155.84;107445;1270;26953;-58
2022/04/04 05:34:52;;;;;;;16.40;5.50;;;;;;;1.07;63.25;100155.30;106826;1270;22652;-54
2022/04/04 05:37:25;;;;;;;17.90;6.20;;;;;;;1.12;63.20;100156.09;105975;1270;24262;-54
2022/04/04 05:39:56;;;;;;;13.40;5.20;;;;;;;1.16;63.01;100156.02;107852;1270;24245;-57
2022/04/04 05:42:29;;;;;;;14.90;4.70;;;;;;;1.21;62.96;100152.33;106812;1270;22629;-57
2022/04/04 05:45:01;;;;;;;13.00;4.80;;;;;;;1.26;62.98;100156.64;106497;1270;22729;-57
2022/04/04 05:47:32;;;;;;;12.30;4.30;;;;;;;1.31;62.72;100159.02;106226;1270;24428;-56
2022/04/04 05:50:07;;;;;;;14.40;4.40;;;;;;;1.36;62.61;100152.62;105866;1270;22756;-57
2022/04/04 05:52:39;;;;;;;13.00;4.90;;;;;;;1.41;62.55;100158.60;106171;1270;24228;-59
2022/04/04 05:55:12;;;;;;;13.30;5.00;;;;;;;1.45;62.42;100158.27;105886;1270;22544;-57
2022/04/04 05:57:43;;;;;;;15.10;5.10;;;;;;;1.50;62.35;100161.50;105922;1270;22720;-56
2022/04/04 06:00:17;;;;;;;12.60;5.10;;;;;;;1.54;62.20;100153.25;105919;1270;22642;-56
2022/04/04 06:02:49;;;;;;;13.30;4.20;;;;;;;1.59;62.29;100157.33;105799;1270;22815;-54
2022/04/04 06:05:22;;;;;;;15.40;5.00;;;;;;;1.65;61.97;100156.05;106203;1270;23008;-56
2022/04/04 06:07:54;;;;;;;13.70;5.00;;;;;;;1.71;61.96;100152.64;105842;1270;22652;-55
2022/04/04 06:10:25;;;;;;;16.20;4.80;;;;;;;1.77;62.01;100156.31;107614;1270;22588;-56
2022/04/04 06:12:56;;;;;;;11.70;3.90;;;;;;;1.84;61.88;100156.73;107793;1270;25186;-55
2022/04/04 06:15:28;;;;;;;12.40;5.60;;;;;;;1.89;61.91;100153.09;109831;1270;22228;-57
2022/04/04 06:18:00;;;;;;;14.50;4.90;;;;;;;1.97;61.81;100151.91;106657;1270;22538;-57
2022/04/04 06:20:32;;;;;;;16.70;4.70;;;;;;;2.04;61.80;100155.08;107375;1270;24409;-57
2022/04/04 06:23:04;;;;;;;12.00;4.40;;;;;;;2.14;61.64;100157.00;105948;1270;25205;-56
2022/04/04 06:25:36;;;;;;;12.70;4.10;;;;;;;2.22;61.50;100155.11;108155;1270;22696;-56
2022/04/04 06:28:10;;;;;;;11.40;4.20;;;;;;;2.30;61.26;100155.01;106221;1270;22602;-55
2022/04/04 06:30:42;;;;;;;13.70;3.80;;;;;;;2.38;61.04;100153.42;105882;1270;22718;-57
2022/04/04 06:33:14;;;;;;;13.40;4.40;;;;;;;2.44;61.04;100152.10;106022;1270;23075;-54
2022/04/04 06:35:47;;;;;;;13.40;4.50;;;;;;;2.53;61.26;100146.59;105887;1270;23013;-55
2022/04/04 06:38:19;;;;;;;12.70;4.00;;;;;;;2.61;61.07;100144.91;105923;1270;22540;-54
2022/04/04 06:40:51;;;;;;;12.30;4.10;;;;;;;2.70;61.05;100149.83;106108;1270;22564;-56
2022/04/04 06:43:23;;;;;;;11.40;4.30;;;;;;;2.78;60.95;100149.46;106112;1270;24322;-57
2022/04/04 06:45:54;;;;;;;12.20;4.20;;;;;;;2.86;60.88;100150.09;105938;1270;22553;-56
2022/04/04 06:48:26;;;;;;;11.10;4.00;;;;;;;2.94;60.92;100146.27;105938;1270;25518;-58
2022/04/04 06:50:59;;;;;;;11.40;4.00;;;;;;;3.03;60.72;100149.69;106058;1270;24244;-57
2022/04/04 06:53:30;;;;;;;12.10;3.80;;;;;;;3.12;60.41;100146.15;105923;1270;22539;-54
2022/04/04 06:56:04;;;;;;;13.00;4.10;;;;;;;3.19;60.44;100145.20;106075;1270;23317;-56
2022/04/04 06:58:36;;;;;;;12.00;3.90;;;;;;;3.26;60.32;100142.64;106252;1270;26654;-56
2022/04/04 07:01:08;;;;;;;11.10;4.30;;;;;;;3.33;60.17;100140.73;106041;1270;24234;-53
2022/04/04 07:03:39;;;;;;;13.80;4.30;;;;;;;3.43;60.23;100147.20;106088;1270;22532;-57
2022/04/04 07:06:12;;;;;;;10.20;3.80;;;;;;;3.51;60.22;100145.97;106242;1270;23960;-58
2022/04/04 07:08:44;;;;;;;14.20;3.90;;;;;;;3.60;59.86;100141.08;106076;1270;25433;-55
2022/04/04 07:11:16;;;;;;;11.80;3.60;;;;;;;3.69;60.05;100138.65;105929;1271;22551;-55
2022/04/04 07:13:49;;;;;;;12.40;4.10;;;;;;;3.78;59.77;100130.74;105894;1270;24387;-54
2022/04/04 07:16:21;;;;;;;11.60;4.00;;;;;;;3.84;59.74;100132.86;105791;1270;22519;-55
2022/04/04 07:18:52;;;;;;;12.00;3.80;;;;;;;3.90;59.81;100130.80;105950;1270;22545;-54
2022/04/04 07:21:24;;;;;;;12.20;3.40;;;;;;;3.98;59.85;100127.66;106007;1269;22992;-57
2022/04/04 07:23:56;;;;;;;12.70;3.70;;;;;;;4.07;59.49;100124.58;106050;1270;25448;-54
2022/04/04 07:26:29;;;;;;;14.20;3.50;;;;;;;4.14;59.10;100126.73;105887;1270;24342;-55
2022/04/04 07:29:01;;;;;;;11.60;3.60;;;;;;;4.18;59.32;100117.70;106036;1270;22549;-56
2022/04/04 07:31:33;;;;;;;12.00;4.30;;;;;;;4.27;59.39;100119.56;106152;1270;22704;-57
2022/04/04 07:34:04;;;;;;;11.80;4.20;;;;;;;4.37;59.21;100114.23;105957;1270;22561;-56
2022/04/04 07:36:36;;;;;;;12.40;4.00;;;;;;;4.45;58.81;100116.84;105747;1270;22540;-57
2022/04/04 07:39:07;;;;;;;8.20;3.30;;;;;;;4.49;58.68;100106.42;105936;1270;22607;-57
2022/04/04 07:41:39;;;;;;;15.40;4.30;;;;;;;4.54;58.78;100104.80;105881;1270;25438;-57
2022/04/04 07:44:11;;;;;;;11.70;3.40;;;;;;;4.61;58.71;100106.63;105878;1270;22547;-56
2022/04/04 07:46:42;;;;;;;10.70;3.60;;;;;;;4.67;58.11;100109.61;105884;1270;22554;-57
2022/04/04 07:49:14;;;;;;;10.90;3.70;;;;;;;4.72;57.82;100107.55;105928;1270;24249;-57
2022/04/04 07:51:45;;;;;;;12.70;4.20;;;;;;;4.75;57.92;100108.08;106083;1270;22732;-57
2022/04/04 07:54:17;;;;;;;12.40;4.00;;;;;;;4.80;57.72;100102.55;106095;1270;22535;-57
2022/04/04 07:56:53;;;;;;;9.90;3.50;;;;;;;4.84;57.56;100098.39;105865;1270;22530;-54
2022/04/04 07:59:25;;;;;;;8.50;2.40;;;;;;;4.91;57.56;100099.13;105975;1270;24266;-58
2022/04/04 08:01:57;;;;;;;11.90;3.00;;;;;;;4.96;57.44;100089.46;105947;1270;26503;-58
2022/04/04 08:04:28;;;;;;;10.90;2.90;;;;;;;5.03;57.53;100085.06;105861;1270;25359;-58
2022/04/04 08:07:00;;;;;;;12.40;3.00;;;;;;;5.10;57.25;100083.33;106063;1270;25321;-58
2022/04/04 08:09:31;;;;;;;13.80;3.20;;;;;;;5.17;57.11;100085.33;105780;1270;26447;-58
2022/04/04 08:12:03;;;;;;;9.90;2.90;;;;;;;5.21;56.69;100078.99;106034;1270;22539;-56
2022/04/04 08:14:36;;;;;;;10.70;2.90;;;;;;;5.27;56.96;100072.14;105849;1270;22478;-56
2022/04/04 08:17:08;;;;;;;11.90;2.70;;;;;;;5.36;56.95;100073.82;105934;1271;22573;-58
2022/04/04 08:19:41;;;;;;;8.30;2.70;;;;;;;5.46;56.74;100069.61;105868;1270;23913;-55
2022/04/04 08:22:14;;;;;;;13.60;2.80;;;;;;;5.53;56.55;100063.95;105853;1270;22883;-58
2022/04/04 08:24:45;;;;;;;9.90;3.00;;;;;;;5.62;56.40;100063.81;105903;1270;22561;-57
2022/04/04 08:27:17;;;;;;;9.30;2.80;;;;;;;5.69;55.92;100062.66;105810;1270;25439;-58
2022/04/04 08:29:49;;;;;;;10.40;2.90;;;;;;;5.74;55.40;100060.86;105798;1270;23583;-55
2022/04/04 08:32:21;;;;;;;11.00;3.00;;;;;;;5.75;55.35;100061.98;105766;1270;25371;-55
2022/04/04 08:34:53;;;;;;;11.10;2.50;;;;;;;5.79;55.53;100054.73;105891;1270;24228;-58
2022/04/04 08:37:25;;;;;;;13.20;3.20;;;;;;;5.87;55.49;100051.84;105890;1270;22545;-58
2022/04/04 08:39:57;;;;;;;13.30;3.30;;;;;;;5.92;55.07;100051.11;105975;1270;22538;-57
2022/04/04 08:42:30;;;;;;;9.60;2.80;;;;;;;5.99;55.04;100049.02;105827;1270;25410;-58
2022/04/04 08:45:06;;;;;;;11.50;3.40;;;;;;;6.04;54.10;100049.08;105938;1270;22536;-57
2022/04/04 08:47:39;;;;;;;8.40;2.60;;;;;;;6.07;54.33;100043.92;105929;1270;24267;-57
2022/04/04 08:50:12;;;;;;;11.20;2.80;;;;;;;6.10;53.80;100044.27;106075;1270;24860;-57
2022/04/04 08:52:45;;;;;;;10.70;3.20;;;;;;;6.13;54.22;100038.69;105985;1270;24278;-55
2022/04/04 08:55:16;;;;;;;11.40;2.50;;;;;;;6.20;54.24;100031.98;105867;1270;25516;-57
2022/04/04 08:57:50;;;;;;;8.90;3.10;;;;;;;6.30;53.29;100031.95;105962;1270;24268;-58
2022/04/04 09:00:22;;;;;;;8.50;2.80;;;;;;;6.33;52.95;100030.30;105938;1270;24438;-58
2022/04/04 09:03:03;;;;;;;10.20;2.30;;;;;;;6.36;53.11;100019.95;105948;1270;24260;-58
2022/04/04 09:05:50;;;;;;;6.80;2.00;;;;;;;6.43;52.81;100012.41;105811;1270;24421;-58
2022/04/04 09:08:23;;;;;;;17.40;2.70;;;;;;;6.50;52.00;100013.21;106053;1270;22684;-56
2022/04/04 09:10:56;;;;;;;7.50;2.00;;;;;;;6.55;52.39;99999.41;106014;1270;22540;-57
2022/04/04 09:13:29;;;;;;;7.70;1.90;;;;;;;6.65;52.39;99993.16;106275;1268;22582;-58
2022/04/04 09:16:05;;;;;;;7.10;2.20;;;;;;;6.71;51.99;99991.48;106003;1270;22615;-57
2022/04/04 09:18:49;;;;;;;8.80;2.10;;;;;;;6.77;51.23;99989.24;106044;1270;24801;-58
2022/04/04 09:21:35;;;;;;;9.30;2.00;;;;;;;6.84;51.95;99980.55;105961;1270;25259;-59
2022/04/04 09:24:11;;;;;;;8.50;1.80;;;;;;;6.94;51.39;99979.52;105999;1270;22544;-58
2022/04/04 09:26:45;;;;;;;9.00;2.10;;;;;;;7.02;51.23;99976.04;105945;1270;24424;-57
2022/04/04 09:29:21;;;;;;;5.20;1.40;;;;;;;7.08;51.57;99969.38;105915;1271;22530;-58
2022/04/04 09:31:59;;;;;;;5.70;1.50;;;;;;;7.19;50.80;99963.42;105918;1270;24273;-59
2022/04/04 09:34:32;;;;;;;6.20;1.50;;;;;;;7.25;49.84;99964.30;105845;1270;380045;-58
2022/04/04 09:37:05;;;;;;;8.40;2.20;;;;;;;7.26;50.26;99950.75;105860;1270;23725;-58
2022/04/04 09:39:37;;;;;;;6.80;1.60;;;;;;;7.32;50.81;99947.73;105863;1270;22857;-58
2022/04/04 09:42:18;;;;;;;6.70;1.80;;;;;;;7.46;49.34;99944.31;105887;1270;22538;-58
2022/04/04 09:45:04;;;;;;;7.80;1.60;;;;;;;7.49;49.23;99937.79;106415;1261;24421;-50
2022/04/04 09:47:56;;;;;;;4.70;1.20;;;;;;;7.60;49.39;99934.60;105708;1271;22532;-51
2022/04/04 09:50:41;;;;;;;8.90;1.70;;;;;;;7.72;48.18;99927.55;105899;1271;22555;-50
2022/04/04 09:53:16;;;;;;;8.90;1.70;;;;;;;7.78;48.98;99920.35;105805;1268;24422;-50
2022/04/04 09:55:49;;;;;;;7.00;1.60;;;;;;;7.84;48.56;99929.08;105688;1270;22911;-47
2022/04/04 09:58:22;;;;;;;7.40;1.50;;;;;;;7.80;47.69;99918.98;105985;1270;22609;-50
2022/04/04 10:00:55;;;;;;;6.80;1.60;;;;;;;7.78;48.24;99913.46;105724;1270;22773;-49
2022/04/04 10:03:27;;;;;;;3.60;1.20;;;;;;;7.76;48.51;99898.63;105630;1271;22555;-50
2022/04/04 10:06:02;;;;;;;5.50;1.30;;;;;;;7.79;48.34;99896.78;105669;1271;24406;-50
2022/04/04 10:08:36;;;;;;;5.00;1.30;;;;;;;7.83;47.12;99894.09;105706;1270;25234;-52
2022/04/04 10:11:09;;;;;;;5.20;1.20;;;;;;;7.80;47.68;99894.98;105878;1270;25361;-50
2022/04/04 10:13:42;;;;;;;4.60;1.00;;;;;;;7.82;47.24;99880.62;105809;1270;23246;-50
2022/04/04 10:16:14;;;;;;;5.60;1.20;;;;;;;7.83;46.93;99878.04;105834;1270;24195;-53
2022/04/04 10:18:46;;;;;;;6.80;1.40;;;;;;;7.91;46.80;99881.39;105739;1271;22540;-50
2022/04/04 10:21:19;;;;;;;6.20;1.50;;;;;;;7.91;46.39;99884.17;106011;1271;24428;-49
2022/04/04 10:23:54;;;;;;;6.20;1.60;;;;;;;7.82;46.19;99871.15;105754;1270;22900;-50
2022/04/04 10:26:30;;;;;;;4.80;1.40;;;;;;;7.80;46.99;99859.45;105712;1270;22541;-50
2022/04/04 10:29:14;;;;;;;4.20;1.30;;;;;;;7.88;46.66;99856.73;105800;1270;25455;-52
2022/04/04 10:31:48;;;;;;;7.10;1.40;;;;;;;7.95;46.50;99853.89;105935;1270;25372;-51
2022/04/04 10:34:22;;;;;;;7.20;1.50;;;;;;;7.99;45.93;99854.61;105789;1271;22589;-51
2022/04/04 10:37:03;;;;;;;6.40;1.40;;;;;;;8.02;45.26;99853.05;105734;1270;24314;-50
2022/04/04 10:39:40;;;;;;;7.20;1.50;;;;;;;7.93;45.58;99847.54;105825;1270;22565;-51
2022/04/04 10:42:26;;;;;;;5.00;1.30;;;;;;;7.86;45.97;99836.11;105724;1271;24466;-51
2022/04/04 10:45:07;;;;;;;8.00;1.90;;;;;;;7.85;46.79;99829.71;105865;1270;24297;-52
2022/04/04 10:47:42;;;;;;;7.60;1.80;;;;;;;7.85;46.54;99831.98;105846;1270;24252;-52
2022/04/04 10:50:30;;;;;;;5.00;1.50;;;;;;;7.88;46.96;99824.33;106004;1270;25343;-50
2022/04/04 10:53:03;;;;;;;6.30;1.30;;;;;;;7.97;46.22;99819.73;106050;1270;24400;-52
2022/04/04 10:55:55;;;;;;;6.20;1.80;;;;;;;8.05;46.16;99819.55;106081;1270;24375;-50
2022/04/04 10:58:27;;;;;;;6.40;1.50;;;;;;;8.12;46.15;99809.27;106027;1270;24454;-50
2022/04/04 11:01:05;;;;;;;6.90;1.50;;;;;;;8.10;45.51;99815.48;106156;1270;25334;-49
2022/04/04 11:03:39;;;;;;;7.60;1.50;;;;;;;8.04;45.25;99813.02;106121;1270;24367;-51
2022/04/04 11:09:22;;;;;;;11.50;1.90;;;;;;;7.93;45.56;99789.98;106025;1270;26665;-51
2022/04/04 11:12:09;;;;;;;4.90;1.50;;;;;;;7.96;46.08;99787.22;106134;1270;22656;-52
2022/04/04 11:14:58;;;;;;;8.30;2.10;;;;;;;8.08;45.49;99783.25;105937;1270;22857;-50
2022/04/04 11:17:41;;;;;;;6.30;1.70;;;;;;;8.22;45.30;99781.61;105895;1270;25628;-52
2022/04/04 11:20:36;;;;;;;5.90;1.90;;;;;;;8.22;44.87;99773.33;106067;1270;25348;-51
2022/04/04 11:23:10;;;;;;;8.20;2.00;;;;;;;8.22;45.02;99765.82;106199;1270;25433;-51
2022/04/04 11:25:52;;;;;;;5.20;1.40;;;;;;;8.25;45.21;99764.23;106085;1270;22657;-50
2022/04/04 11:28:30;;;;;;;6.00;1.40;;;;;;;8.27;44.97;99755.19;106167;1270;23150;-50
2022/04/04 11:31:09;;;;;;;6.50;1.60;;;;;;;8.22;44.08;99748.14;106078;1270;25351;-50
2022/04/04 11:33:51;;;;;;;6.90;1.80;;;;;;;8.20;43.65;99742.59;105966;1270;23386;-53
2022/04/04 11:36:28;;;;;;;5.40;1.80;;;;;;;8.24;43.92;99741.37;105874;1270;27638;-50
2022/04/04 11:39:07;;;;;;;5.50;1.50;;;;;;;8.37;43.91;99731.52;106079;1270;22557;-50
2022/04/04 11:41:46;;;;;;;5.60;1.80;;;;;;;8.46;43.57;99726.51;105930;1270;25631;-51
2022/04/04 11:44:27;;;;;;;6.20;1.50;;;;;;;8.57;43.78;99728.02;106114;1270;25592;-50
2022/04/04 11:47:07;;;;;;;4.40;1.40;;;;;;;8.66;43.82;99719.64;106014;1270;23176;-50
2022/04/04 11:49:40;;;;;;;4.90;1.50;;;;;;;8.77;43.79;99708.70;105791;1270;22794;-54
2022/04/04 11:52:16;;;;;;;5.50;1.40;;;;;;;8.85;43.12;99715.02;105948;1270;25304;-50
2022/04/04 11:54:50;;;;;;;4.50;1.40;;;;;;;8.78;42.99;99711.41;106075;1270;25279;-49